sensor_id;sensor_type;location;lat;lon;timestamp;P1;durP1;ratioP1;P2;durP2;ratioP2
76127;SDS011;64873;50.102;14.434;2022-11-13T00:02:03;45.63;;;19.90;;
76127;SDS011;64873;50.102;14.434;2022-11-13T00:04:28;46.50;;;20.95;;
76127;SDS011;64873;50.102;14.434;2022-11-13T00:06:53;53.72;;;23.85;;
76127;SDS011;64873;50.102;14.434;2022-11-13T00:09:19;56.20;;;22.70;;
76127;SDS011;64873;50.102;14.434;2022-11-13T00:11:44;52.25;;;23.35;;
76127;SDS011;64873;50.102;14.434;2022-11-13T00:14:09;47.55;;;21.75;;
76127;SDS011;64873;50.102;14.434;2022-11-13T00:16:35;44.20;;;21.15;;
76127;SDS011;64873;50.102;14.434;2022-11-13T00:19:00;40.97;;;19.13;;
76127;SDS011;64873;50.102;14.434;2022-11-13T00:21:26;43.13;;;20.20;;
76127;SDS011;64873;50.102;14.434;2022-11-13T00:23:51;39.65;;;18.70;;
76127;SDS011;64873;50.102;14.434;2022-11-13T00:26:19;40.75;;;20.90;;
76127;SDS011;64873;50.102;14.434;2022-11-13T00:28:46;45.00;;;20.77;;
76127;SDS011;64873;50.102;14.434;2022-11-13T00:31:16;48.20;;;21.42;;
76127;SDS011;64873;50.102;14.434;2022-11-13T00:33:42;44.58;;;19.40;;
76127;SDS011;64873;50.102;14.434;2022-11-13T00:36:08;45.17;;;20.95;;
76127;SDS011;64873;50.102;14.434;2022-11-13T00:38:38;47.70;;;20.35;;
76127;SDS011;64873;50.102;14.434;2022-11-13T00:41:03;42.60;;;18.40;;
76127;SDS011;64873;50.102;14.434;2022-11-13T00:43:29;36.17;;;16.45;;
76127;SDS011;64873;50.102;14.434;2022-11-13T00:45:54;29.92;;;14.75;;
76127;SDS011;64873;50.102;14.434;2022-11-13T00:48:19;33.50;;;16.65;;
76127;SDS011;64873;50.102;14.434;2022-11-13T00:50:45;40.17;;;17.45;;
76127;SDS011;64873;50.102;14.434;2022-11-13T00:53:11;35.20;;;14.48;;
76127;SDS011;64873;50.102;14.434;2022-11-13T00:55:37;34.42;;;16.50;;
76127;SDS011;64873;50.102;14.434;2022-11-13T00:58:02;38.15;;;18.05;;
76127;SDS011;64873;50.102;14.434;2022-11-13T01:00:29;37.60;;;18.65;;
76127;SDS011;64873;50.102;14.434;2022-11-13T01:02:56;44.85;;;18.30;;
76127;SDS011;64873;50.102;14.434;2022-11-13T01:05:22;41.00;;;19.02;;
76127;SDS011;64873;50.102;14.434;2022-11-13T01:07:47;48.13;;;18.70;;
76127;SDS011;64873;50.102;14.434;2022-11-13T01:10:13;35.75;;;16.92;;
76127;SDS011;64873;50.102;14.434;2022-11-13T01:12:38;40.00;;;17.58;;
76127;SDS011;64873;50.102;14.434;2022-11-13T01:15:04;46.22;;;19.42;;
76127;SDS011;64873;50.102;14.434;2022-11-13T01:17:29;53.00;;;20.52;;
76127;SDS011;64873;50.102;14.434;2022-11-13T01:19:55;41.80;;;18.35;;
76127;SDS011;64873;50.102;14.434;2022-11-13T01:22:20;44.92;;;19.25;;
76127;SDS011;64873;50.102;14.434;2022-11-13T01:24:45;49.08;;;18.95;;
76127;SDS011;64873;50.102;14.434;2022-11-13T01:27:11;36.88;;;16.15;;
76127;SDS011;64873;50.102;14.434;2022-11-13T01:29:37;49.88;;;17.70;;
76127;SDS011;64873;50.102;14.434;2022-11-13T01:32:03;36.97;;;16.73;;
76127;SDS011;64873;50.102;14.434;2022-11-13T01:34:28;40.75;;;17.60;;
76127;SDS011;64873;50.102;14.434;2022-11-13T01:36:54;38.88;;;14.65;;
76127;SDS011;64873;50.102;14.434;2022-11-13T01:39:19;35.95;;;15.25;;
76127;SDS011;64873;50.102;14.434;2022-11-13T01:41:44;38.80;;;15.23;;
76127;SDS011;64873;50.102;14.434;2022-11-13T01:44:11;40.40;;;15.60;;
76127;SDS011;64873;50.102;14.434;2022-11-13T01:46:40;32.67;;;15.57;;
76127;SDS011;64873;50.102;14.434;2022-11-13T01:54:25;42.10;;;16.30;;
76127;SDS011;64873;50.102;14.434;2022-11-13T01:56:53;38.72;;;16.60;;
76127;SDS011;64873;50.102;14.434;2022-11-13T01:59:21;41.00;;;15.73;;
76127;SDS011;64873;50.102;14.434;2022-11-13T02:01:50;45.38;;;17.98;;
76127;SDS011;64873;50.102;14.434;2022-11-13T02:04:15;35.58;;;17.02;;
76127;SDS011;64873;50.102;14.434;2022-11-13T02:09:12;45.50;;;16.25;;
76127;SDS011;64873;50.102;14.434;2022-11-13T02:11:39;40.53;;;16.27;;
76127;SDS011;64873;50.102;14.434;2022-11-13T02:14:05;42.83;;;17.67;;
76127;SDS011;64873;50.102;14.434;2022-11-13T02:16:32;56.40;;;17.05;;
76127;SDS011;64873;50.102;14.434;2022-11-13T02:19:01;44.15;;;17.60;;
76127;SDS011;64873;50.102;14.434;2022-11-13T02:21:37;47.15;;;18.60;;
76127;SDS011;64873;50.102;14.434;2022-11-13T02:26:43;46.45;;;17.77;;
76127;SDS011;64873;50.102;14.434;2022-11-13T02:29:09;40.80;;;16.80;;
76127;SDS011;64873;50.102;14.434;2022-11-13T02:31:34;45.97;;;17.42;;
76127;SDS011;64873;50.102;14.434;2022-11-13T02:34:02;45.30;;;18.60;;
76127;SDS011;64873;50.102;14.434;2022-11-13T02:36:28;40.83;;;17.23;;
76127;SDS011;64873;50.102;14.434;2022-11-13T02:38:54;47.50;;;17.95;;
76127;SDS011;64873;50.102;14.434;2022-11-13T02:41:22;54.88;;;17.55;;
76127;SDS011;64873;50.102;14.434;2022-11-13T02:43:48;35.20;;;13.60;;
76127;SDS011;64873;50.102;14.434;2022-11-13T02:46:13;41.13;;;15.73;;
76127;SDS011;64873;50.102;14.434;2022-11-13T02:48:38;34.38;;;15.25;;
76127;SDS011;64873;50.102;14.434;2022-11-13T02:51:04;48.00;;;16.98;;
76127;SDS011;64873;50.102;14.434;2022-11-13T02:53:29;45.58;;;17.02;;
76127;SDS011;64873;50.102;14.434;2022-11-13T02:55:55;46.03;;;16.92;;
76127;SDS011;64873;50.102;14.434;2022-11-13T02:58:20;44.53;;;15.82;;
76127;SDS011;64873;50.102;14.434;2022-11-13T03:00:45;47.88;;;18.13;;
76127;SDS011;64873;50.102;14.434;2022-11-13T03:03:11;50.13;;;20.33;;
76127;SDS011;64873;50.102;14.434;2022-11-13T03:05:36;50.13;;;18.88;;
76127;SDS011;64873;50.102;14.434;2022-11-13T03:08:01;50.80;;;19.70;;
76127;SDS011;64873;50.102;14.434;2022-11-13T03:10:27;50.65;;;20.00;;
76127;SDS011;64873;50.102;14.434;2022-11-13T03:12:52;51.05;;;20.25;;
76127;SDS011;64873;50.102;14.434;2022-11-13T03:15:18;48.47;;;19.67;;
76127;SDS011;64873;50.102;14.434;2022-11-13T03:17:43;46.58;;;18.75;;
76127;SDS011;64873;50.102;14.434;2022-11-13T03:20:08;51.05;;;19.00;;
76127;SDS011;64873;50.102;14.434;2022-11-13T03:22:34;43.30;;;19.20;;
76127;SDS011;64873;50.102;14.434;2022-11-13T03:24:59;44.05;;;18.75;;
76127;SDS011;64873;50.102;14.434;2022-11-13T03:27:25;40.35;;;18.90;;
76127;SDS011;64873;50.102;14.434;2022-11-13T03:29:50;49.17;;;20.35;;
76127;SDS011;64873;50.102;14.434;2022-11-13T03:32:15;49.08;;;20.17;;
76127;SDS011;64873;50.102;14.434;2022-11-13T03:34:41;47.30;;;19.70;;
76127;SDS011;64873;50.102;14.434;2022-11-13T03:37:06;52.55;;;19.10;;
76127;SDS011;64873;50.102;14.434;2022-11-13T03:39:31;55.42;;;19.85;;
76127;SDS011;64873;50.102;14.434;2022-11-13T03:41:57;47.58;;;19.00;;
76127;SDS011;64873;50.102;14.434;2022-11-13T03:44:22;53.53;;;20.52;;
76127;SDS011;64873;50.102;14.434;2022-11-13T03:46:47;49.88;;;18.83;;
76127;SDS011;64873;50.102;14.434;2022-11-13T03:49:13;53.03;;;19.15;;
76127;SDS011;64873;50.102;14.434;2022-11-13T03:51:38;54.95;;;21.10;;
76127;SDS011;64873;50.102;14.434;2022-11-13T03:54:03;69.25;;;20.77;;
76127;SDS011;64873;50.102;14.434;2022-11-13T03:56:29;54.83;;;20.48;;
76127;SDS011;64873;50.102;14.434;2022-11-13T03:58:54;56.17;;;19.73;;
76127;SDS011;64873;50.102;14.434;2022-11-13T04:01:19;60.28;;;22.20;;
76127;SDS011;64873;50.102;14.434;2022-11-13T04:03:45;58.83;;;21.17;;
76127;SDS011;64873;50.102;14.434;2022-11-13T04:06:10;54.70;;;21.85;;
76127;SDS011;64873;50.102;14.434;2022-11-13T04:08:35;53.53;;;19.85;;
76127;SDS011;64873;50.102;14.434;2022-11-13T04:11:05;54.97;;;20.92;;
76127;SDS011;64873;50.102;14.434;2022-11-13T04:13:34;55.53;;;21.70;;
76127;SDS011;64873;50.102;14.434;2022-11-13T04:16:00;59.00;;;20.45;;
76127;SDS011;64873;50.102;14.434;2022-11-13T04:18:25;51.67;;;20.40;;
76127;SDS011;64873;50.102;14.434;2022-11-13T04:20:51;34.38;;;16.48;;
76127;SDS011;64873;50.102;14.434;2022-11-13T04:23:16;36.30;;;16.00;;
76127;SDS011;64873;50.102;14.434;2022-11-13T04:25:42;36.05;;;14.68;;
76127;SDS011;64873;50.102;14.434;2022-11-13T04:28:08;37.47;;;18.30;;
76127;SDS011;64873;50.102;14.434;2022-11-13T04:30:34;50.67;;;19.73;;
76127;SDS011;64873;50.102;14.434;2022-11-13T04:32:59;44.22;;;20.88;;
76127;SDS011;64873;50.102;14.434;2022-11-13T04:35:25;53.70;;;21.35;;
76127;SDS011;64873;50.102;14.434;2022-11-13T04:37:50;46.95;;;20.88;;
76127;SDS011;64873;50.102;14.434;2022-11-13T04:40:16;44.20;;;19.05;;
76127;SDS011;64873;50.102;14.434;2022-11-13T04:42:41;43.42;;;20.35;;
76127;SDS011;64873;50.102;14.434;2022-11-13T04:45:13;35.90;;;17.30;;
76127;SDS011;64873;50.102;14.434;2022-11-13T04:47:39;40.05;;;19.63;;
76127;SDS011;64873;50.102;14.434;2022-11-13T04:50:05;37.42;;;18.25;;
76127;SDS011;64873;50.102;14.434;2022-11-13T04:52:30;41.38;;;18.88;;
76127;SDS011;64873;50.102;14.434;2022-11-13T04:54:56;40.05;;;18.65;;
76127;SDS011;64873;50.102;14.434;2022-11-13T04:57:21;44.58;;;20.05;;
76127;SDS011;64873;50.102;14.434;2022-11-13T04:59:47;44.08;;;18.52;;
76127;SDS011;64873;50.102;14.434;2022-11-13T05:02:12;38.65;;;17.70;;
76127;SDS011;64873;50.102;14.434;2022-11-13T05:04:38;43.90;;;19.00;;
76127;SDS011;64873;50.102;14.434;2022-11-13T05:07:03;43.88;;;19.20;;
76127;SDS011;64873;50.102;14.434;2022-11-13T05:09:29;43.08;;;20.02;;
76127;SDS011;64873;50.102;14.434;2022-11-13T05:11:54;43.47;;;20.67;;
76127;SDS011;64873;50.102;14.434;2022-11-13T05:14:19;38.47;;;18.58;;
76127;SDS011;64873;50.102;14.434;2022-11-13T05:16:45;37.90;;;19.50;;
76127;SDS011;64873;50.102;14.434;2022-11-13T05:19:10;32.15;;;16.23;;
76127;SDS011;64873;50.102;14.434;2022-11-13T05:21:36;38.88;;;18.83;;
76127;SDS011;64873;50.102;14.434;2022-11-13T05:24:03;39.17;;;18.63;;
76127;SDS011;64873;50.102;14.434;2022-11-13T05:26:29;38.97;;;18.27;;
76127;SDS011;64873;50.102;14.434;2022-11-13T05:28:56;42.80;;;19.92;;
76127;SDS011;64873;50.102;14.434;2022-11-13T05:31:22;41.55;;;18.50;;
76127;SDS011;64873;50.102;14.434;2022-11-13T05:33:48;42.63;;;19.38;;
76127;SDS011;64873;50.102;14.434;2022-11-13T05:36:14;39.20;;;19.35;;
76127;SDS011;64873;50.102;14.434;2022-11-13T05:38:41;37.03;;;18.95;;
76127;SDS011;64873;50.102;14.434;2022-11-13T05:41:11;39.58;;;18.88;;
76127;SDS011;64873;50.102;14.434;2022-11-13T05:43:39;35.20;;;17.70;;
76127;SDS011;64873;50.102;14.434;2022-11-13T05:46:06;31.90;;;16.52;;
76127;SDS011;64873;50.102;14.434;2022-11-13T05:48:32;32.63;;;16.73;;
76127;SDS011;64873;50.102;14.434;2022-11-13T05:51:08;34.70;;;17.45;;
76127;SDS011;64873;50.102;14.434;2022-11-13T05:53:34;34.85;;;17.08;;
76127;SDS011;64873;50.102;14.434;2022-11-13T05:56:01;34.40;;;16.95;;
76127;SDS011;64873;50.102;14.434;2022-11-13T05:58:32;38.63;;;17.95;;
76127;SDS011;64873;50.102;14.434;2022-11-13T06:01:14;40.25;;;18.40;;
76127;SDS011;64873;50.102;14.434;2022-11-13T06:03:42;34.75;;;17.20;;
76127;SDS011;64873;50.102;14.434;2022-11-13T06:06:08;41.22;;;18.98;;
76127;SDS011;64873;50.102;14.434;2022-11-13T06:08:36;37.97;;;18.00;;
76127;SDS011;64873;50.102;14.434;2022-11-13T06:11:03;41.20;;;18.73;;
76127;SDS011;64873;50.102;14.434;2022-11-13T06:13:34;43.70;;;19.88;;
76127;SDS011;64873;50.102;14.434;2022-11-13T06:16:04;36.13;;;17.52;;
76127;SDS011;64873;50.102;14.434;2022-11-13T06:18:32;44.80;;;18.67;;
76127;SDS011;64873;50.102;14.434;2022-11-13T06:21:01;34.13;;;17.50;;
76127;SDS011;64873;50.102;14.434;2022-11-13T06:23:28;35.53;;;18.42;;
76127;SDS011;64873;50.102;14.434;2022-11-13T06:26:00;38.92;;;18.02;;
76127;SDS011;64873;50.102;14.434;2022-11-13T06:28:30;42.05;;;18.95;;
76127;SDS011;64873;50.102;14.434;2022-11-13T06:31:00;37.20;;;17.23;;
76127;SDS011;64873;50.102;14.434;2022-11-13T06:33:30;44.40;;;17.48;;
76127;SDS011;64873;50.102;14.434;2022-11-13T06:35:56;35.97;;;16.98;;
76127;SDS011;64873;50.102;14.434;2022-11-13T06:38:21;43.85;;;18.23;;
76127;SDS011;64873;50.102;14.434;2022-11-13T06:40:46;36.65;;;16.88;;
76127;SDS011;64873;50.102;14.434;2022-11-13T06:43:12;31.63;;;16.40;;
76127;SDS011;64873;50.102;14.434;2022-11-13T06:45:37;31.17;;;16.98;;
76127;SDS011;64873;50.102;14.434;2022-11-13T06:48:03;29.73;;;16.23;;
76127;SDS011;64873;50.102;14.434;2022-11-13T06:50:28;35.15;;;18.02;;
76127;SDS011;64873;50.102;14.434;2022-11-13T06:52:53;38.55;;;18.33;;
76127;SDS011;64873;50.102;14.434;2022-11-13T06:55:19;38.30;;;18.35;;
76127;SDS011;64873;50.102;14.434;2022-11-13T06:57:44;37.28;;;18.67;;
76127;SDS011;64873;50.102;14.434;2022-11-13T07:00:10;39.60;;;16.98;;
76127;SDS011;64873;50.102;14.434;2022-11-13T07:02:36;31.88;;;16.85;;
76127;SDS011;64873;50.102;14.434;2022-11-13T07:05:01;44.97;;;20.35;;
76127;SDS011;64873;50.102;14.434;2022-11-13T07:07:27;41.03;;;16.75;;
76127;SDS011;64873;50.102;14.434;2022-11-13T07:09:52;28.33;;;15.32;;
76127;SDS011;64873;50.102;14.434;2022-11-13T07:12:17;36.45;;;17.10;;
76127;SDS011;64873;50.102;14.434;2022-11-13T07:14:43;30.45;;;16.80;;
76127;SDS011;64873;50.102;14.434;2022-11-13T07:17:08;34.95;;;16.98;;
76127;SDS011;64873;50.102;14.434;2022-11-13T07:19:36;41.38;;;18.98;;
76127;SDS011;64873;50.102;14.434;2022-11-13T07:22:01;37.78;;;18.17;;
76127;SDS011;64873;50.102;14.434;2022-11-13T07:24:26;41.88;;;18.73;;
76127;SDS011;64873;50.102;14.434;2022-11-13T07:26:52;33.47;;;15.43;;
76127;SDS011;64873;50.102;14.434;2022-11-13T07:29:17;28.98;;;14.90;;
76127;SDS011;64873;50.102;14.434;2022-11-13T07:31:42;34.85;;;15.15;;
76127;SDS011;64873;50.102;14.434;2022-11-13T07:34:08;35.83;;;18.92;;
76127;SDS011;64873;50.102;14.434;2022-11-13T07:36:33;35.92;;;18.58;;
76127;SDS011;64873;50.102;14.434;2022-11-13T07:38:58;37.22;;;19.30;;
76127;SDS011;64873;50.102;14.434;2022-11-13T07:41:24;39.90;;;18.63;;
76127;SDS011;64873;50.102;14.434;2022-11-13T07:43:49;32.00;;;16.40;;
76127;SDS011;64873;50.102;14.434;2022-11-13T07:46:14;38.15;;;19.05;;
76127;SDS011;64873;50.102;14.434;2022-11-13T07:48:40;38.28;;;18.27;;
76127;SDS011;64873;50.102;14.434;2022-11-13T07:51:05;45.47;;;20.08;;
76127;SDS011;64873;50.102;14.434;2022-11-13T07:53:31;45.17;;;19.67;;
76127;SDS011;64873;50.102;14.434;2022-11-13T07:55:59;42.17;;;18.92;;
76127;SDS011;64873;50.102;14.434;2022-11-13T07:58:25;41.60;;;18.23;;
76127;SDS011;64873;50.102;14.434;2022-11-13T08:00:51;37.65;;;18.02;;
76127;SDS011;64873;50.102;14.434;2022-11-13T08:03:16;40.72;;;18.35;;
76127;SDS011;64873;50.102;14.434;2022-11-13T08:05:42;39.85;;;18.65;;
76127;SDS011;64873;50.102;14.434;2022-11-13T08:08:10;38.53;;;18.60;;
76127;SDS011;64873;50.102;14.434;2022-11-13T08:10:36;42.42;;;21.00;;
76127;SDS011;64873;50.102;14.434;2022-11-13T08:13:03;43.50;;;20.27;;
76127;SDS011;64873;50.102;14.434;2022-11-13T08:15:30;46.03;;;20.20;;
76127;SDS011;64873;50.102;14.434;2022-11-13T08:17:56;34.40;;;16.38;;
76127;SDS011;64873;50.102;14.434;2022-11-13T08:20:23;41.92;;;19.60;;
76127;SDS011;64873;50.102;14.434;2022-11-13T08:22:50;50.92;;;21.88;;
76127;SDS011;64873;50.102;14.434;2022-11-13T08:25:16;56.20;;;24.15;;
76127;SDS011;64873;50.102;14.434;2022-11-13T08:27:42;47.10;;;20.30;;
76127;SDS011;64873;50.102;14.434;2022-11-13T08:30:07;51.08;;;22.92;;
76127;SDS011;64873;50.102;14.434;2022-11-13T08:32:33;48.55;;;21.05;;
76127;SDS011;64873;50.102;14.434;2022-11-13T08:34:59;51.88;;;23.15;;
76127;SDS011;64873;50.102;14.434;2022-11-13T08:37:24;52.40;;;23.52;;
76127;SDS011;64873;50.102;14.434;2022-11-13T08:39:49;56.42;;;23.10;;
76127;SDS011;64873;50.102;14.434;2022-11-13T08:42:15;54.80;;;23.35;;
76127;SDS011;64873;50.102;14.434;2022-11-13T08:44:40;57.53;;;24.02;;
76127;SDS011;64873;50.102;14.434;2022-11-13T08:47:05;51.85;;;22.48;;
76127;SDS011;64873;50.102;14.434;2022-11-13T08:49:31;57.92;;;24.65;;
76127;SDS011;64873;50.102;14.434;2022-11-13T08:51:56;49.65;;;22.40;;
76127;SDS011;64873;50.102;14.434;2022-11-13T08:54:22;55.40;;;24.25;;
76127;SDS011;64873;50.102;14.434;2022-11-13T08:56:47;56.28;;;24.63;;
76127;SDS011;64873;50.102;14.434;2022-11-13T08:59:13;53.83;;;23.15;;
76127;SDS011;64873;50.102;14.434;2022-11-13T09:01:39;53.88;;;25.17;;
76127;SDS011;64873;50.102;14.434;2022-11-13T09:04:04;55.92;;;23.27;;
76127;SDS011;64873;50.102;14.434;2022-11-13T09:06:30;52.03;;;23.02;;
76127;SDS011;64873;50.102;14.434;2022-11-13T09:08:56;52.80;;;23.02;;
76127;SDS011;64873;50.102;14.434;2022-11-13T09:11:22;55.13;;;26.80;;
76127;SDS011;64873;50.102;14.434;2022-11-13T09:13:47;51.35;;;21.15;;
76127;SDS011;64873;50.102;14.434;2022-11-13T09:16:12;33.25;;;16.33;;
76127;SDS011;64873;50.102;14.434;2022-11-13T09:18:37;46.25;;;23.02;;
76127;SDS011;64873;50.102;14.434;2022-11-13T09:21:03;39.75;;;20.88;;
76127;SDS011;64873;50.102;14.434;2022-11-13T09:23:28;46.10;;;24.08;;
76127;SDS011;64873;50.102;14.434;2022-11-13T09:25:54;50.08;;;22.90;;
76127;SDS011;64873;50.102;14.434;2022-11-13T09:28:20;46.75;;;25.35;;
76127;SDS011;64873;50.102;14.434;2022-11-13T09:30:45;44.70;;;22.98;;
76127;SDS011;64873;50.102;14.434;2022-11-13T09:33:10;50.15;;;23.08;;
76127;SDS011;64873;50.102;14.434;2022-11-13T09:35:39;49.20;;;24.23;;
76127;SDS011;64873;50.102;14.434;2022-11-13T09:38:10;49.53;;;23.17;;
76127;SDS011;64873;50.102;14.434;2022-11-13T09:43:35;41.75;;;22.42;;
76127;SDS011;64873;50.102;14.434;2022-11-13T09:45:59;43.22;;;20.67;;
76127;SDS011;64873;50.102;14.434;2022-11-13T09:48:33;47.97;;;23.40;;
76127;SDS011;64873;50.102;14.434;2022-11-13T09:51:10;44.40;;;21.42;;
76127;SDS011;64873;50.102;14.434;2022-11-13T09:53:39;48.90;;;23.67;;
76127;SDS011;64873;50.102;14.434;2022-11-13T09:56:25;46.22;;;22.35;;
76127;SDS011;64873;50.102;14.434;2022-11-13T09:58:56;40.17;;;21.35;;
76127;SDS011;64873;50.102;14.434;2022-11-13T10:01:45;39.95;;;21.52;;
76127;SDS011;64873;50.102;14.434;2022-11-13T10:04:25;42.22;;;22.25;;
76127;SDS011;64873;50.102;14.434;2022-11-13T10:07:34;43.47;;;23.70;;
76127;SDS011;64873;50.102;14.434;2022-11-13T10:13:03;43.20;;;23.10;;
76127;SDS011;64873;50.102;14.434;2022-11-13T10:15:30;41.08;;;21.38;;
76127;SDS011;64873;50.102;14.434;2022-11-13T10:18:02;38.75;;;20.45;;
76127;SDS011;64873;50.102;14.434;2022-11-13T10:23:19;38.50;;;20.88;;
76127;SDS011;64873;50.102;14.434;2022-11-13T10:25:48;38.28;;;21.42;;
76127;SDS011;64873;50.102;14.434;2022-11-13T10:28:17;38.35;;;20.70;;
76127;SDS011;64873;50.102;14.434;2022-11-13T10:30:44;37.00;;;19.73;;
76127;SDS011;64873;50.102;14.434;2022-11-13T10:33:13;41.30;;;22.02;;
76127;SDS011;64873;50.102;14.434;2022-11-13T10:35:58;43.42;;;20.90;;
76127;SDS011;64873;50.102;14.434;2022-11-13T10:38:53;41.22;;;21.83;;
76127;SDS011;64873;50.102;14.434;2022-11-13T10:41:22;43.60;;;21.65;;
76127;SDS011;64873;50.102;14.434;2022-11-13T10:43:54;43.00;;;22.52;;
76127;SDS011;64873;50.102;14.434;2022-11-13T10:46:26;43.25;;;22.40;;
76127;SDS011;64873;50.102;14.434;2022-11-13T10:48:57;46.40;;;22.13;;
76127;SDS011;64873;50.102;14.434;2022-11-13T10:51:33;43.03;;;21.05;;
76127;SDS011;64873;50.102;14.434;2022-11-13T10:54:10;44.80;;;22.13;;
76127;SDS011;64873;50.102;14.434;2022-11-13T10:56:44;46.90;;;22.90;;
76127;SDS011;64873;50.102;14.434;2022-11-13T10:59:24;46.45;;;21.85;;
76127;SDS011;64873;50.102;14.434;2022-11-13T11:01:50;45.42;;;22.80;;
76127;SDS011;64873;50.102;14.434;2022-11-13T11:04:19;43.20;;;21.77;;
76127;SDS011;64873;50.102;14.434;2022-11-13T11:06:51;49.78;;;23.58;;
76127;SDS011;64873;50.102;14.434;2022-11-13T11:09:20;42.20;;;20.35;;
76127;SDS011;64873;50.102;14.434;2022-11-13T11:12:05;49.45;;;23.75;;
76127;SDS011;64873;50.102;14.434;2022-11-13T11:17:33;42.95;;;20.70;;
76127;SDS011;64873;50.102;14.434;2022-11-13T11:20:05;51.47;;;24.38;;
76127;SDS011;64873;50.102;14.434;2022-11-13T11:22:41;52.15;;;24.67;;
76127;SDS011;64873;50.102;14.434;2022-11-13T11:25:14;54.50;;;25.85;;
76127;SDS011;64873;50.102;14.434;2022-11-13T11:28:01;61.15;;;27.35;;
76127;SDS011;64873;50.102;14.434;2022-11-13T11:30:37;66.05;;;31.85;;
76127;SDS011;64873;50.102;14.434;2022-11-13T11:33:16;64.10;;;28.60;;
76127;SDS011;64873;50.102;14.434;2022-11-13T11:36:02;52.78;;;25.58;;
76127;SDS011;64873;50.102;14.434;2022-11-13T11:41:16;57.28;;;26.15;;
76127;SDS011;64873;50.102;14.434;2022-11-13T11:46:43;58.33;;;26.73;;
76127;SDS011;64873;50.102;14.434;2022-11-13T11:49:09;63.33;;;30.50;;
76127;SDS011;64873;50.102;14.434;2022-11-13T11:57:00;62.50;;;27.27;;
76127;SDS011;64873;50.102;14.434;2022-11-13T11:59:47;55.42;;;26.25;;
76127;SDS011;64873;50.102;14.434;2022-11-13T12:05:34;59.38;;;25.20;;
76127;SDS011;64873;50.102;14.434;2022-11-13T12:13:57;70.38;;;29.75;;
76127;SDS011;64873;50.102;14.434;2022-11-13T12:16:39;75.68;;;34.10;;
76127;SDS011;64873;50.102;14.434;2022-11-13T12:24:53;81.03;;;34.92;;
76127;SDS011;64873;50.102;14.434;2022-11-13T12:27:57;87.22;;;40.38;;
76127;SDS011;64873;50.102;14.434;2022-11-13T12:30:45;84.60;;;35.65;;
76127;SDS011;64873;50.102;14.434;2022-11-13T12:33:22;80.20;;;37.90;;
76127;SDS011;64873;50.102;14.434;2022-11-13T12:35:58;87.80;;;43.40;;
76127;SDS011;64873;50.102;14.434;2022-11-13T12:38:37;83.13;;;38.17;;
76127;SDS011;64873;50.102;14.434;2022-11-13T12:41:30;77.32;;;39.53;;
76127;SDS011;64873;50.102;14.434;2022-11-13T12:44:28;64.07;;;31.98;;
76127;SDS011;64873;50.102;14.434;2022-11-13T12:46:55;81.10;;;40.58;;
76127;SDS011;64873;50.102;14.434;2022-11-13T12:49:33;62.28;;;31.27;;
76127;SDS011;64873;50.102;14.434;2022-11-13T12:52:15;68.13;;;35.78;;
76127;SDS011;64873;50.102;14.434;2022-11-13T12:54:47;70.80;;;34.13;;
76127;SDS011;64873;50.102;14.434;2022-11-13T12:59:48;69.05;;;33.25;;
76127;SDS011;64873;50.102;14.434;2022-11-13T13:15:45;69.88;;;37.55;;
76127;SDS011;64873;50.102;14.434;2022-11-13T13:20:44;74.80;;;36.97;;
76127;SDS011;64873;50.102;14.434;2022-11-13T13:23:55;78.35;;;42.42;;
76127;SDS011;64873;50.102;14.434;2022-11-13T13:28:42;77.82;;;36.03;;
76127;SDS011;64873;50.102;14.434;2022-11-13T13:33:55;78.40;;;37.40;;
76127;SDS011;64873;50.102;14.434;2022-11-13T13:45:00;74.95;;;35.63;;
76127;SDS011;64873;50.102;14.434;2022-11-13T13:47:37;75.63;;;35.85;;
76127;SDS011;64873;50.102;14.434;2022-11-13T13:50:07;73.80;;;35.65;;
76127;SDS011;64873;50.102;14.434;2022-11-13T13:52:39;71.15;;;33.67;;
76127;SDS011;64873;50.102;14.434;2022-11-13T13:55:14;78.75;;;36.53;;
76127;SDS011;64873;50.102;14.434;2022-11-13T13:57:42;73.07;;;36.00;;
76127;SDS011;64873;50.102;14.434;2022-11-13T14:00:12;77.07;;;37.45;;
76127;SDS011;64873;50.102;14.434;2022-11-13T14:02:44;72.07;;;33.72;;
76127;SDS011;64873;50.102;14.434;2022-11-13T14:05:30;71.93;;;33.75;;
76127;SDS011;64873;50.102;14.434;2022-11-13T14:07:58;67.65;;;32.22;;
76127;SDS011;64873;50.102;14.434;2022-11-13T14:10:26;68.18;;;32.45;;
76127;SDS011;64873;50.102;14.434;2022-11-13T14:12:52;72.53;;;33.25;;
76127;SDS011;64873;50.102;14.434;2022-11-13T14:15:28;69.45;;;30.40;;
76127;SDS011;64873;50.102;14.434;2022-11-13T14:18:11;72.47;;;34.15;;
76127;SDS011;64873;50.102;14.434;2022-11-13T14:23:07;77.55;;;35.33;;
76127;SDS011;64873;50.102;14.434;2022-11-13T14:25:35;81.10;;;35.15;;
76127;SDS011;64873;50.102;14.434;2022-11-13T14:28:02;82.30;;;37.30;;
76127;SDS011;64873;50.102;14.434;2022-11-13T14:30:27;77.72;;;36.85;;
76127;SDS011;64873;50.102;14.434;2022-11-13T14:32:54;84.07;;;37.83;;
76127;SDS011;64873;50.102;14.434;2022-11-13T14:35:22;90.10;;;39.85;;
76127;SDS011;64873;50.102;14.434;2022-11-13T14:37:50;95.22;;;40.75;;
76127;SDS011;64873;50.102;14.434;2022-11-13T14:40:24;87.05;;;37.67;;
76127;SDS011;64873;50.102;14.434;2022-11-13T14:42:53;81.82;;;35.33;;
76127;SDS011;64873;50.102;14.434;2022-11-13T14:45:26;83.13;;;35.75;;
76127;SDS011;64873;50.102;14.434;2022-11-13T14:48:14;93.45;;;41.38;;
76127;SDS011;64873;50.102;14.434;2022-11-13T14:51:05;92.47;;;40.05;;
76127;SDS011;64873;50.102;14.434;2022-11-13T14:53:54;99.75;;;42.58;;
76127;SDS011;64873;50.102;14.434;2022-11-13T14:56:29;100.70;;;43.33;;
76127;SDS011;64873;50.102;14.434;2022-11-13T14:59:05;95.85;;;40.92;;
76127;SDS011;64873;50.102;14.434;2022-11-13T15:01:31;92.28;;;39.97;;
76127;SDS011;64873;50.102;14.434;2022-11-13T15:03:57;88.38;;;39.42;;
76127;SDS011;64873;50.102;14.434;2022-11-13T15:06:23;93.57;;;40.00;;
76127;SDS011;64873;50.102;14.434;2022-11-13T15:08:53;91.43;;;39.72;;
76127;SDS011;64873;50.102;14.434;2022-11-13T15:11:20;84.05;;;36.17;;
76127;SDS011;64873;50.102;14.434;2022-11-13T15:13:47;84.60;;;37.58;;
76127;SDS011;64873;50.102;14.434;2022-11-13T15:16:26;89.10;;;37.08;;
76127;SDS011;64873;50.102;14.434;2022-11-13T15:18:58;81.75;;;36.63;;
76127;SDS011;64873;50.102;14.434;2022-11-13T15:21:26;82.32;;;35.92;;
76127;SDS011;64873;50.102;14.434;2022-11-13T15:23:52;85.68;;;38.00;;
76127;SDS011;64873;50.102;14.434;2022-11-13T15:26:18;76.05;;;32.60;;
76127;SDS011;64873;50.102;14.434;2022-11-13T15:28:43;87.55;;;37.33;;
76127;SDS011;64873;50.102;14.434;2022-11-13T15:31:19;81.50;;;36.55;;
76127;SDS011;64873;50.102;14.434;2022-11-13T15:33:45;82.40;;;34.60;;
76127;SDS011;64873;50.102;14.434;2022-11-13T15:36:11;87.78;;;38.05;;
76127;SDS011;64873;50.102;14.434;2022-11-13T15:38:36;82.35;;;35.75;;
76127;SDS011;64873;50.102;14.434;2022-11-13T15:41:07;83.00;;;36.92;;